UAE1 EGKK-LOWW
Flight info
| Callsign | UAE1 |
|---|---|
| Flight time | 1h 36m |
| Altitude | 37000 |
| Route | DVR UL9 KONAN UL607 KOK DCT LNO DCT MATUG DCT GUBAX DCT BOREP DCT ENITA DCT ETVIS DCT BUDEX BUDEX2W |
| Aircraft | A338/H-SADE1E2E3GHIJ3J5M1P2RWXY/LB2D1 |
Departure
| Time | 2026-04-25 16:07 |
|---|---|
| Airport | London Gatwick Airport (EGKK) |
Arrival
| Time | 2026-04-25 17:44 |
|---|---|
| Airport | Vienna International Airport (LOWW) |
| Time | Latitude | Longitude | Altitude | Speed | Heading |
|---|---|---|---|---|---|
| 2026-04-25 15:31 | 51.16180 | -0.18078 | 220 ft | 0 kts | 78° |
| 2026-04-25 15:39 | 51.16180 | -0.18083 | 210 ft | 3 kts | 78° |
| 2026-04-25 15:40 | 51.16174 | -0.18125 | 213 ft | 4 kts | 78° |
| 2026-04-25 15:40 | 51.16170 | -0.18150 | 219 ft | 2 kts | 77° |
| 2026-04-25 15:40 | 51.16175 | -0.18193 | 220 ft | 4 kts | 150° |
| 2026-04-25 15:40 | 51.16200 | -0.18208 | 221 ft | 4 kts | 167° |
| 2026-04-25 15:41 | 51.16208 | -0.18211 | 219 ft | 1 kts | 167° |
| 2026-04-25 15:45 | 51.16203 | -0.18209 | 220 ft | 3 kts | 167° |
| 2026-04-25 15:45 | 51.16165 | -0.18194 | 215 ft | 8 kts | 167° |
| 2026-04-25 15:45 | 51.16095 | -0.18170 | 216 ft | 12 kts | 167° |
| 2026-04-25 15:45 | 51.16035 | -0.18149 | 221 ft | 14 kts | 167° |
| 2026-04-25 15:46 | 51.15999 | -0.18136 | 219 ft | 5 kts | 168° |
| 2026-04-25 15:46 | 51.15945 | -0.18118 | 215 ft | 10 kts | 168° |
| 2026-04-25 15:46 | 51.15867 | -0.18092 | 219 ft | 12 kts | 168° |
| 2026-04-25 15:46 | 51.15785 | -0.18088 | 215 ft | 11 kts | 206° |
| 2026-04-25 15:47 | 51.15726 | -0.18159 | 219 ft | 10 kts | 212° |
| 2026-04-25 15:47 | 51.15652 | -0.18230 | 216 ft | 14 kts | 206° |
| 2026-04-25 15:47 | 51.15561 | -0.18293 | 221 ft | 15 kts | 202° |
| 2026-04-25 15:47 | 51.15478 | -0.18309 | 214 ft | 13 kts | 170° |
| 2026-04-25 15:48 | 51.15383 | -0.18277 | 215 ft | 12 kts | 167° |
| 2026-04-25 15:48 | 51.15315 | -0.18253 | 218 ft | 6 kts | 167° |
| 2026-04-25 15:48 | 51.15290 | -0.18244 | 218 ft | 0 kts | 167° |
| 2026-04-25 15:52 | 51.15289 | -0.18243 | 218 ft | 2 kts | 167° |
| 2026-04-25 15:53 | 51.15257 | -0.18232 | 212 ft | 7 kts | 167° |
| 2026-04-25 15:53 | 51.15214 | -0.18245 | 220 ft | 8 kts | 219° |
| 2026-04-25 15:53 | 51.15186 | -0.18336 | 219 ft | 12 kts | 257° |
| 2026-04-25 15:53 | 51.15166 | -0.18485 | 215 ft | 16 kts | 258° |
| 2026-04-25 15:54 | 51.15141 | -0.18673 | 216 ft | 19 kts | 258° |
| 2026-04-25 15:54 | 51.15111 | -0.18891 | 218 ft | 21 kts | 257° |
| 2026-04-25 15:54 | 51.15082 | -0.19107 | 218 ft | 19 kts | 258° |
| 2026-04-25 15:54 | 51.15052 | -0.19326 | 218 ft | 21 kts | 257° |
| 2026-04-25 15:55 | 51.15018 | -0.19568 | 214 ft | 23 kts | 257° |
| 2026-04-25 15:55 | 51.14983 | -0.19821 | 216 ft | 24 kts | 258° |
| 2026-04-25 15:55 | 51.14944 | -0.20086 | 217 ft | 25 kts | 256° |
| 2026-04-25 15:55 | 51.14906 | -0.20360 | 215 ft | 26 kts | 258° |
| 2026-04-25 15:56 | 51.14870 | -0.20626 | 219 ft | 24 kts | 257° |
| 2026-04-25 15:56 | 51.14836 | -0.20859 | 213 ft | 13 kts | 257° |
| 2026-04-25 15:56 | 51.14813 | -0.21016 | 215 ft | 15 kts | 257° |
| 2026-04-25 15:56 | 51.14789 | -0.21177 | 216 ft | 16 kts | 255° |
| 2026-04-25 15:57 | 51.14760 | -0.21346 | 212 ft | 10 kts | 246° |
| 2026-04-25 15:57 | 51.14752 | -0.21369 | 221 ft | 4 kts | 231° |
| 2026-04-25 15:57 | 51.14741 | -0.21386 | 221 ft | 0 kts | 212° |
| 2026-04-25 16:01 | 51.14729 | -0.21397 | 221 ft | 4 kts | 201° |
| 2026-04-25 16:01 | 51.14692 | -0.21394 | 217 ft | 7 kts | 152° |
| 2026-04-25 16:02 | 51.14643 | -0.21348 | 218 ft | 4 kts | 153° |
| 2026-04-25 16:02 | 51.14626 | -0.21336 | 220 ft | 0 kts | 158° |
| 2026-04-25 16:05 | 51.14587 | -0.21315 | 219 ft | 8 kts | 161° |
| 2026-04-25 16:06 | 51.14529 | -0.21243 | 222 ft | 10 kts | 114° |
| 2026-04-25 16:06 | 51.14522 | -0.21155 | 216 ft | 2 kts | 79° |
| 2026-04-25 16:06 | 51.14524 | -0.21136 | 218 ft | 0 kts | 78° |
| 2026-04-25 16:06 | 51.14531 | -0.21088 | 221 ft | 16 kts | 76° |
| 2026-04-25 16:07 | 51.14628 | -0.20400 | 219 ft | 111 kts | 77° |
| 2026-04-25 16:07 | 51.14687 | -0.19963 | 222 ft | 136 kts | 78° |
| 2026-04-25 16:07 | 51.15027 | -0.17572 | 659 ft | 175 kts | 77° |
| 2026-04-25 16:07 | 51.15303 | -0.15640 | 1300 ft | 184 kts | 77° |
| 2026-04-25 16:08 | 51.15614 | -0.13592 | 1801 ft | 197 kts | 76° |
| 2026-04-25 16:08 | 51.15929 | -0.11375 | 2111 ft | 212 kts | 78° |
| 2026-04-25 16:08 | 51.16241 | -0.09008 | 2288 ft | 228 kts | 78° |
| 2026-04-25 16:08 | 51.16576 | -0.06418 | 2702 ft | 249 kts | 78° |
| 2026-04-25 16:09 | 51.16873 | -0.03609 | 3296 ft | 261 kts | 85° |
| 2026-04-25 16:09 | 51.16855 | -0.00708 | 4219 ft | 263 kts | 92° |
| 2026-04-25 16:09 | 51.16780 | 0.02229 | 5092 ft | 268 kts | 90° |
| 2026-04-25 16:09 | 51.16726 | 0.05221 | 5964 ft | 272 kts | 90° |
| 2026-04-25 16:10 | 51.16675 | 0.08250 | 6839 ft | 275 kts | 90° |
| 2026-04-25 16:10 | 51.16624 | 0.11337 | 7648 ft | 280 kts | 90° |
| 2026-04-25 16:10 | 51.16569 | 0.14458 | 8468 ft | 284 kts | 91° |
| 2026-04-25 16:10 | 51.16523 | 0.17636 | 9265 ft | 289 kts | 90° |
| 2026-04-25 16:11 | 51.16530 | 0.20871 | 10082 ft | 294 kts | 89° |
| 2026-04-25 16:11 | 51.16552 | 0.24155 | 10813 ft | 298 kts | 89° |
| 2026-04-25 16:11 | 51.16572 | 0.27464 | 11564 ft | 302 kts | 89° |
| 2026-04-25 16:11 | 51.16583 | 0.30845 | 12284 ft | 307 kts | 89° |
| 2026-04-25 16:12 | 51.16589 | 0.34262 | 13001 ft | 311 kts | 89° |
| 2026-04-25 16:12 | 51.16593 | 0.37730 | 13717 ft | 315 kts | 89° |
| 2026-04-25 16:12 | 51.16594 | 0.41241 | 14371 ft | 319 kts | 89° |
| 2026-04-25 16:12 | 51.16593 | 0.43582 | 14781 ft | 321 kts | 89° |
| 2026-04-25 16:13 | 51.16589 | 0.48354 | 15591 ft | 326 kts | 89° |
| 2026-04-25 16:13 | 51.16585 | 0.52018 | 15936 ft | 339 kts | 89° |
| 2026-04-25 16:13 | 51.16584 | 0.55818 | 16107 ft | 357 kts | 89° |
| 2026-04-25 16:13 | 51.16582 | 0.59880 | 16275 ft | 374 kts | 89° |
| 2026-04-25 16:14 | 51.16580 | 0.64072 | 16680 ft | 382 kts | 89° |
| 2026-04-25 16:14 | 51.16574 | 0.68320 | 17257 ft | 385 kts | 89° |
| 2026-04-25 16:14 | 51.16566 | 0.72524 | 17798 ft | 389 kts | 89° |
| 2026-04-25 16:14 | 51.16555 | 0.76852 | 18365 ft | 392 kts | 89° |
| 2026-04-25 16:15 | 51.16544 | 0.81214 | 18857 ft | 396 kts | 89° |
| 2026-04-25 16:15 | 51.16531 | 0.85613 | 19338 ft | 399 kts | 90° |
| 2026-04-25 16:15 | 51.16517 | 0.90056 | 19795 ft | 402 kts | 90° |
| 2026-04-25 16:15 | 51.16500 | 0.94535 | 20255 ft | 405 kts | 90° |
| 2026-04-25 16:16 | 51.16482 | 0.99022 | 20781 ft | 407 kts | 90° |
| 2026-04-25 16:16 | 51.16462 | 1.03560 | 21201 ft | 411 kts | 90° |
| 2026-04-25 16:16 | 51.16440 | 1.07910 | 21612 ft | 414 kts | 90° |
| 2026-04-25 16:16 | 51.16416 | 1.12511 | 22047 ft | 418 kts | 91° |
| 2026-04-25 16:17 | 51.16390 | 1.17167 | 22488 ft | 421 kts | 91° |
| 2026-04-25 16:17 | 51.16362 | 1.21867 | 22921 ft | 425 kts | 91° |
| 2026-04-25 16:17 | 51.16332 | 1.26593 | 23349 ft | 428 kts | 91° |
| 2026-04-25 16:17 | 51.16300 | 1.31348 | 23767 ft | 432 kts | 91° |
| 2026-04-25 16:18 | 51.16253 | 1.36149 | 24150 ft | 434 kts | 94° |
| 2026-04-25 16:18 | 51.16193 | 1.37704 | 24300 ft | 434 kts | 96° |
| 2026-04-25 16:18 | 51.15786 | 1.45744 | 25086 ft | 433 kts | 95° |
| 2026-04-25 16:18 | 51.15561 | 1.50522 | 25537 ft | 435 kts | 95° |
| 2026-04-25 16:19 | 51.15333 | 1.55343 | 25917 ft | 438 kts | 95° |
| 2026-04-25 16:19 | 51.15099 | 1.60189 | 26345 ft | 440 kts | 95° |
| 2026-04-25 16:19 | 51.14861 | 1.65069 | 26788 ft | 443 kts | 95° |
| 2026-04-25 16:20 | 51.14371 | 1.74895 | 27703 ft | 448 kts | 95° |
| 2026-04-25 16:20 | 51.14121 | 1.79849 | 28160 ft | 451 kts | 96° |
| 2026-04-25 16:20 | 51.13609 | 1.89858 | 29097 ft | 456 kts | 96° |
| 2026-04-25 16:21 | 51.13346 | 1.94913 | 29284 ft | 466 kts | 95° |
| 2026-04-25 16:21 | 51.13075 | 2.00102 | 29673 ft | 470 kts | 95° |
| 2026-04-25 16:21 | 51.12801 | 2.05308 | 30149 ft | 473 kts | 95° |
| 2026-04-25 16:21 | 51.12527 | 2.10466 | 30550 ft | 477 kts | 95° |
| 2026-04-25 16:22 | 51.12240 | 2.15811 | 30986 ft | 479 kts | 96° |
| 2026-04-25 16:22 | 51.11954 | 2.21106 | 31403 ft | 482 kts | 96° |
| 2026-04-25 16:22 | 51.11663 | 2.26432 | 31811 ft | 484 kts | 96° |
| 2026-04-25 16:22 | 51.11369 | 2.31786 | 32223 ft | 487 kts | 96° |
| 2026-04-25 16:23 | 51.11070 | 2.37166 | 32603 ft | 490 kts | 96° |
| 2026-04-25 16:23 | 51.10766 | 2.42588 | 32940 ft | 493 kts | 96° |
| 2026-04-25 16:23 | 51.10459 | 2.48034 | 33355 ft | 496 kts | 96° |
| 2026-04-25 16:23 | 51.10147 | 2.53510 | 33752 ft | 498 kts | 96° |
| 2026-04-25 16:24 | 51.09836 | 2.58946 | 34139 ft | 501 kts | 96° |
| 2026-04-25 16:24 | 51.09473 | 2.64442 | 34474 ft | 503 kts | 99° |
| 2026-04-25 16:24 | 51.08876 | 2.69253 | 34764 ft | 504 kts | 105° |
| 2026-04-25 16:24 | 51.08063 | 2.74393 | 35105 ft | 506 kts | 105° |
| 2026-04-25 16:25 | 51.07285 | 2.79433 | 35205 ft | 510 kts | 104° |
| 2026-04-25 16:25 | 51.05759 | 2.89438 | 35209 ft | 503 kts | 104° |
| 2026-04-25 16:26 | 51.04150 | 2.99906 | 35205 ft | 505 kts | 104° |
| 2026-04-25 16:26 | 51.02573 | 3.10061 | 35205 ft | 505 kts | 104° |
| 2026-04-25 16:27 | 51.00882 | 3.20879 | 35192 ft | 505 kts | 104° |
| 2026-04-25 16:27 | 50.99181 | 3.31683 | 35187 ft | 505 kts | 104° |
| 2026-04-25 16:28 | 50.97458 | 3.42553 | 35182 ft | 508 kts | 104° |
| 2026-04-25 16:28 | 50.95728 | 3.53405 | 35180 ft | 508 kts | 105° |
| 2026-04-25 16:29 | 50.93987 | 3.64247 | 35180 ft | 507 kts | 105° |
| 2026-04-25 16:29 | 50.92234 | 3.75095 | 35183 ft | 508 kts | 105° |
| 2026-04-25 16:30 | 50.90469 | 3.85947 | 35182 ft | 509 kts | 105° |
| 2026-04-25 16:30 | 50.88693 | 3.96795 | 35180 ft | 509 kts | 105° |
| 2026-04-25 16:31 | 50.86904 | 4.07658 | 35182 ft | 509 kts | 105° |
| 2026-04-25 16:31 | 50.85108 | 4.18492 | 35179 ft | 509 kts | 105° |
| 2026-04-25 16:32 | 50.83301 | 4.29318 | 35181 ft | 509 kts | 105° |
| 2026-04-25 16:32 | 50.81483 | 4.40144 | 35184 ft | 509 kts | 105° |
| 2026-04-25 16:33 | 50.79659 | 4.50940 | 35184 ft | 509 kts | 105° |
| 2026-04-25 16:33 | 50.77819 | 4.61765 | 35180 ft | 510 kts | 105° |
| 2026-04-25 16:34 | 50.75970 | 4.72570 | 35176 ft | 510 kts | 105° |
| 2026-04-25 16:34 | 50.74112 | 4.83367 | 35173 ft | 509 kts | 105° |
| 2026-04-25 16:35 | 50.72264 | 4.94035 | 35174 ft | 509 kts | 105° |
| 2026-04-25 16:35 | 50.70390 | 5.04792 | 35183 ft | 509 kts | 105° |
| 2026-04-25 16:36 | 50.68502 | 5.15555 | 35190 ft | 509 kts | 105° |
| 2026-04-25 16:36 | 50.66589 | 5.26408 | 35182 ft | 511 kts | 105° |
| 2026-04-25 16:37 | 50.64690 | 5.37106 | 35186 ft | 511 kts | 105° |
| 2026-04-25 16:37 | 50.62768 | 5.47872 | 35185 ft | 510 kts | 105° |
| 2026-04-25 16:38 | 50.60838 | 5.58619 | 35175 ft | 510 kts | 106° |
| 2026-04-25 16:38 | 50.58886 | 5.69385 | 35172 ft | 512 kts | 107° |
| 2026-04-25 16:39 | 50.56345 | 5.79821 | 35171 ft | 511 kts | 112° |
| 2026-04-25 16:39 | 50.53712 | 5.90203 | 35172 ft | 511 kts | 111° |
| 2026-04-25 16:40 | 50.51067 | 6.00590 | 35159 ft | 511 kts | 112° |
| 2026-04-25 16:40 | 50.48406 | 6.10956 | 35134 ft | 512 kts | 111° |
| 2026-04-25 16:41 | 50.45730 | 6.21329 | 35120 ft | 512 kts | 112° |
| 2026-04-25 16:41 | 50.41942 | 6.36982 | 35121 ft | 511 kts | 103° |
| 2026-04-25 16:42 | 50.40828 | 6.47957 | 35115 ft | 510 kts | 95° |
| 2026-04-25 16:42 | 50.39999 | 6.59001 | 35116 ft | 510 kts | 95° |
| 2026-04-25 16:43 | 50.39169 | 6.69670 | 35111 ft | 510 kts | 95° |
| 2026-04-25 16:43 | 50.38287 | 6.80884 | 35114 ft | 510 kts | 95° |
| 2026-04-25 16:44 | 50.37410 | 6.91904 | 35124 ft | 510 kts | 96° |
| 2026-04-25 16:44 | 50.36523 | 7.02919 | 35137 ft | 509 kts | 95° |
| 2026-04-25 16:45 | 50.35628 | 7.13918 | 35130 ft | 509 kts | 96° |
| 2026-04-25 16:45 | 50.34721 | 7.24910 | 35134 ft | 509 kts | 96° |
| 2026-04-25 16:46 | 50.33803 | 7.35910 | 35136 ft | 509 kts | 96° |
| 2026-04-25 16:46 | 50.33190 | 7.43185 | 35134 ft | 509 kts | 96° |
| 2026-04-25 16:47 | 50.31944 | 7.57803 | 35128 ft | 509 kts | 96° |
| 2026-04-25 16:47 | 50.30996 | 7.68783 | 35130 ft | 509 kts | 96° |
| 2026-04-25 16:48 | 50.30037 | 7.79758 | 35126 ft | 509 kts | 96° |
| 2026-04-25 16:48 | 50.29070 | 7.90721 | 35129 ft | 510 kts | 96° |
| 2026-04-25 16:49 | 50.27949 | 8.01676 | 35117 ft | 510 kts | 98° |
| 2026-04-25 16:49 | 50.26725 | 8.12596 | 35108 ft | 510 kts | 98° |
| 2026-04-25 16:50 | 50.25550 | 8.23232 | 35107 ft | 510 kts | 98° |
| 2026-04-25 16:50 | 50.24344 | 8.34153 | 35104 ft | 511 kts | 98° |
| 2026-04-25 16:51 | 50.23125 | 8.45094 | 35105 ft | 511 kts | 98° |
| 2026-04-25 16:51 | 50.22304 | 8.52409 | 35098 ft | 511 kts | 98° |
| 2026-04-25 16:52 | 50.20657 | 8.66954 | 35099 ft | 511 kts | 98° |
| 2026-04-25 16:52 | 50.19407 | 8.77881 | 35101 ft | 511 kts | 98° |
| 2026-04-25 16:53 | 50.17728 | 8.92407 | 35094 ft | 511 kts | 98° |
| 2026-04-25 16:54 | 50.16455 | 9.03307 | 35087 ft | 511 kts | 98° |
| 2026-04-25 16:54 | 50.15171 | 9.14216 | 35086 ft | 511 kts | 98° |
| 2026-04-25 16:55 | 50.14094 | 9.23290 | 35084 ft | 512 kts | 98° |
| 2026-04-25 16:55 | 50.12568 | 9.36044 | 35083 ft | 512 kts | 98° |
| 2026-04-25 16:56 | 50.11251 | 9.46947 | 35083 ft | 512 kts | 98° |
| 2026-04-25 16:56 | 50.09923 | 9.57864 | 35079 ft | 513 kts | 98° |
| 2026-04-25 16:57 | 50.08584 | 9.68773 | 35084 ft | 514 kts | 98° |
| 2026-04-25 16:57 | 50.07233 | 9.79686 | 35078 ft | 513 kts | 99° |
| 2026-04-25 16:58 | 50.05875 | 9.90570 | 35071 ft | 513 kts | 99° |
| 2026-04-25 16:58 | 50.04504 | 10.01477 | 35073 ft | 514 kts | 99° |
| 2026-04-25 16:59 | 50.03121 | 10.12382 | 35072 ft | 514 kts | 99° |
| 2026-04-25 16:59 | 50.01728 | 10.23281 | 35072 ft | 514 kts | 99° |
| 2026-04-25 17:00 | 50.00324 | 10.34187 | 35068 ft | 514 kts | 99° |
| 2026-04-25 17:00 | 49.98909 | 10.45084 | 35083 ft | 514 kts | 99° |
| 2026-04-25 17:01 | 49.97484 | 10.55979 | 35084 ft | 515 kts | 99° |
| 2026-04-25 17:01 | 49.96047 | 10.66892 | 35098 ft | 516 kts | 99° |
| 2026-04-25 17:02 | 49.94572 | 10.77761 | 35097 ft | 516 kts | 100° |
| 2026-04-25 17:02 | 49.93082 | 10.88679 | 35091 ft | 516 kts | 100° |
| 2026-04-25 17:03 | 49.91590 | 10.99561 | 35075 ft | 516 kts | 100° |
| 2026-04-25 17:03 | 49.90084 | 11.10467 | 35073 ft | 517 kts | 100° |
| 2026-04-25 17:04 | 49.88575 | 11.21316 | 35065 ft | 517 kts | 100° |
| 2026-04-25 17:04 | 49.87049 | 11.32201 | 35058 ft | 516 kts | 100° |
| 2026-04-25 17:05 | 49.85514 | 11.43076 | 35053 ft | 516 kts | 100° |
| 2026-04-25 17:05 | 49.83200 | 11.59319 | 35043 ft | 514 kts | 100° |
| 2026-04-25 17:06 | 49.81645 | 11.70137 | 35030 ft | 515 kts | 101° |
| 2026-04-25 17:06 | 49.80085 | 11.80911 | 35022 ft | 515 kts | 101° |
| 2026-04-25 17:07 | 49.78510 | 11.91721 | 35020 ft | 514 kts | 101° |
| 2026-04-25 17:07 | 49.76927 | 12.02505 | 35015 ft | 514 kts | 101° |
| 2026-04-25 17:08 | 49.75331 | 12.13302 | 35024 ft | 515 kts | 101° |
| 2026-04-25 17:08 | 49.73727 | 12.24075 | 35042 ft | 515 kts | 101° |
| 2026-04-25 17:09 | 49.72111 | 12.34857 | 35039 ft | 515 kts | 101° |
| 2026-04-25 17:09 | 49.70485 | 12.45639 | 35041 ft | 515 kts | 101° |
| 2026-04-25 17:10 | 49.68931 | 12.56358 | 35032 ft | 514 kts | 100° |
| 2026-04-25 17:10 | 49.67430 | 12.67236 | 35035 ft | 515 kts | 100° |
| 2026-04-25 17:11 | 49.65756 | 12.77899 | 35036 ft | 516 kts | 108° |
| 2026-04-25 17:11 | 49.62620 | 12.87869 | 35029 ft | 518 kts | 123° |
| 2026-04-25 17:12 | 49.58475 | 12.96971 | 35014 ft | 519 kts | 125° |
| 2026-04-25 17:12 | 49.54343 | 13.06075 | 35006 ft | 518 kts | 125° |
| 2026-04-25 17:13 | 49.50878 | 13.13680 | 35028 ft | 519 kts | 125° |
| 2026-04-25 17:13 | 49.46049 | 13.24229 | 35006 ft | 519 kts | 125° |
| 2026-04-25 17:14 | 49.41892 | 13.33275 | 34990 ft | 518 kts | 125° |
| 2026-04-25 17:14 | 49.37742 | 13.42276 | 35018 ft | 515 kts | 125° |
| 2026-04-25 17:15 | 49.33592 | 13.51248 | 35019 ft | 516 kts | 125° |
| 2026-04-25 17:15 | 49.29420 | 13.60234 | 35022 ft | 517 kts | 125° |
| 2026-04-25 17:16 | 49.25253 | 13.69180 | 34793 ft | 515 kts | 125° |
| 2026-04-25 17:16 | 49.23182 | 13.73615 | 34249 ft | 510 kts | 125° |
| 2026-04-25 17:16 | 49.21132 | 13.77997 | 33646 ft | 500 kts | 125° |
| 2026-04-25 17:17 | 49.19138 | 13.82254 | 33002 ft | 490 kts | 125° |
| 2026-04-25 17:17 | 49.17165 | 13.86460 | 32366 ft | 483 kts | 125° |
| 2026-04-25 17:17 | 49.15227 | 13.90585 | 31725 ft | 476 kts | 125° |
| 2026-04-25 17:17 | 49.13308 | 13.94662 | 31097 ft | 469 kts | 125° |
| 2026-04-25 17:18 | 49.11420 | 13.98668 | 30466 ft | 462 kts | 126° |
| 2026-04-25 17:18 | 49.09553 | 14.02627 | 29819 ft | 455 kts | 126° |
| 2026-04-25 17:18 | 49.07716 | 14.06514 | 29111 ft | 450 kts | 126° |
| 2026-04-25 17:18 | 49.05897 | 14.10356 | 28421 ft | 444 kts | 127° |
| 2026-04-25 17:19 | 49.04092 | 14.14163 | 27752 ft | 441 kts | 127° |
| 2026-04-25 17:19 | 49.02303 | 14.17931 | 27099 ft | 438 kts | 127° |
| 2026-04-25 17:19 | 49.00521 | 14.21679 | 26463 ft | 437 kts | 128° |
| 2026-04-25 17:19 | 48.98739 | 14.25421 | 25848 ft | 436 kts | 128° |
| 2026-04-25 17:20 | 48.97564 | 14.27885 | 25429 ft | 434 kts | 128° |
| 2026-04-25 17:20 | 48.95197 | 14.32849 | 24645 ft | 429 kts | 128° |
| 2026-04-25 17:20 | 48.93439 | 14.36486 | 24049 ft | 425 kts | 129° |
| 2026-04-25 17:20 | 48.91651 | 14.40036 | 23433 ft | 420 kts | 130° |
| 2026-04-25 17:21 | 48.89872 | 14.43519 | 22771 ft | 416 kts | 130° |
| 2026-04-25 17:21 | 48.88103 | 14.46987 | 22039 ft | 413 kts | 130° |
| 2026-04-25 17:21 | 48.86345 | 14.50442 | 21310 ft | 411 kts | 130° |
| 2026-04-25 17:21 | 48.84615 | 14.53851 | 20619 ft | 408 kts | 129° |
| 2026-04-25 17:22 | 48.82886 | 14.57259 | 19907 ft | 405 kts | 129° |
| 2026-04-25 17:22 | 48.81748 | 14.59502 | 19443 ft | 403 kts | 129° |
| 2026-04-25 17:22 | 48.79624 | 14.64120 | 18578 ft | 398 kts | 118° |
| 2026-04-25 17:22 | 48.78369 | 14.67836 | 17847 ft | 395 kts | 118° |
| 2026-04-25 17:23 | 48.77119 | 14.71530 | 17259 ft | 391 kts | 118° |
| 2026-04-25 17:23 | 48.75905 | 14.75092 | 17038 ft | 380 kts | 118° |
| 2026-04-25 17:23 | 48.74699 | 14.78618 | 17001 ft | 377 kts | 118° |
| 2026-04-25 17:23 | 48.73484 | 14.82159 | 17008 ft | 380 kts | 118° |
| 2026-04-25 17:24 | 48.72258 | 14.85726 | 16999 ft | 381 kts | 118° |
| 2026-04-25 17:24 | 48.71015 | 14.89336 | 16997 ft | 381 kts | 118° |
| 2026-04-25 17:24 | 48.69806 | 14.92844 | 17002 ft | 381 kts | 118° |
| 2026-04-25 17:24 | 48.68578 | 14.96401 | 16998 ft | 381 kts | 118° |
| 2026-04-25 17:25 | 48.67351 | 14.99952 | 16991 ft | 380 kts | 118° |
| 2026-04-25 17:25 | 48.66124 | 15.03497 | 16992 ft | 381 kts | 118° |
| 2026-04-25 17:25 | 48.64804 | 15.06933 | 16995 ft | 379 kts | 127° |
| 2026-04-25 17:25 | 48.63259 | 15.10165 | 16994 ft | 380 kts | 127° |
| 2026-04-25 17:26 | 48.61695 | 15.13398 | 16994 ft | 380 kts | 128° |
| 2026-04-25 17:26 | 48.60138 | 15.16617 | 16996 ft | 379 kts | 127° |
| 2026-04-25 17:26 | 48.58586 | 15.19836 | 16870 ft | 377 kts | 127° |
| 2026-04-25 17:26 | 48.57055 | 15.23014 | 16496 ft | 376 kts | 127° |
| 2026-04-25 17:27 | 48.55524 | 15.26193 | 16015 ft | 373 kts | 127° |
| 2026-04-25 17:27 | 48.54000 | 15.29355 | 15543 ft | 371 kts | 127° |
| 2026-04-25 17:27 | 48.52485 | 15.32494 | 15105 ft | 368 kts | 127° |
| 2026-04-25 17:27 | 48.51975 | 15.33549 | 14961 ft | 367 kts | 127° |
| 2026-04-25 17:28 | 48.49499 | 15.38672 | 14211 ft | 362 kts | 127° |
| 2026-04-25 17:28 | 48.48017 | 15.41731 | 13760 ft | 360 kts | 127° |
| 2026-04-25 17:28 | 48.46550 | 15.44756 | 13307 ft | 356 kts | 127° |
| 2026-04-25 17:28 | 48.45090 | 15.47762 | 13026 ft | 354 kts | 127° |
| 2026-04-25 17:29 | 48.43636 | 15.50753 | 12993 ft | 354 kts | 127° |
| 2026-04-25 17:29 | 48.42173 | 15.53759 | 12983 ft | 356 kts | 127° |
| 2026-04-25 17:29 | 48.40713 | 15.56756 | 12984 ft | 356 kts | 127° |
| 2026-04-25 17:29 | 48.39248 | 15.59760 | 12984 ft | 356 kts | 127° |
| 2026-04-25 17:30 | 48.37783 | 15.62763 | 12988 ft | 355 kts | 128° |
| 2026-04-25 17:30 | 48.36324 | 15.65749 | 12991 ft | 355 kts | 128° |
| 2026-04-25 17:30 | 48.34862 | 15.68738 | 12983 ft | 357 kts | 128° |
| 2026-04-25 17:30 | 48.33387 | 15.71749 | 12983 ft | 358 kts | 128° |
| 2026-04-25 17:31 | 48.31914 | 15.74755 | 12846 ft | 354 kts | 128° |
| 2026-04-25 17:31 | 48.30455 | 15.77726 | 12449 ft | 352 kts | 128° |
| 2026-04-25 17:31 | 48.29001 | 15.80686 | 11993 ft | 349 kts | 127° |
| 2026-04-25 17:31 | 48.27564 | 15.83609 | 11526 ft | 347 kts | 128° |
| 2026-04-25 17:32 | 48.26135 | 15.86508 | 11072 ft | 345 kts | 127° |
| 2026-04-25 17:32 | 48.24713 | 15.89392 | 10613 ft | 343 kts | 127° |
| 2026-04-25 17:32 | 48.23307 | 15.92241 | 10197 ft | 340 kts | 127° |
| 2026-04-25 17:32 | 48.21897 | 15.95095 | 9744 ft | 338 kts | 127° |
| 2026-04-25 17:33 | 48.20515 | 15.97890 | 9283 ft | 335 kts | 127° |
| 2026-04-25 17:33 | 48.19786 | 15.99364 | 9033 ft | 334 kts | 127° |
| 2026-04-25 17:33 | 48.18417 | 16.02139 | 8592 ft | 331 kts | 127° |
| 2026-04-25 17:33 | 48.17788 | 16.03412 | 8479 ft | 326 kts | 127° |
| 2026-04-25 17:34 | 48.16262 | 16.06485 | 8141 ft | 317 kts | 127° |
| 2026-04-25 17:34 | 48.14962 | 16.09099 | 7860 ft | 311 kts | 127° |
| 2026-04-25 17:34 | 48.13667 | 16.11703 | 7415 ft | 311 kts | 127° |
| 2026-04-25 17:34 | 48.12380 | 16.14288 | 6963 ft | 310 kts | 127° |
| 2026-04-25 17:35 | 48.11110 | 16.16836 | 6549 ft | 309 kts | 126° |
| 2026-04-25 17:35 | 48.09830 | 16.19400 | 6083 ft | 308 kts | 126° |
| 2026-04-25 17:35 | 48.08553 | 16.21957 | 5639 ft | 306 kts | 126° |
| 2026-04-25 17:35 | 48.07274 | 16.24517 | 5194 ft | 305 kts | 126° |
| 2026-04-25 17:36 | 48.06007 | 16.27056 | 4743 ft | 305 kts | 127° |
| 2026-04-25 17:36 | 48.04737 | 16.29595 | 4295 ft | 305 kts | 127° |
| 2026-04-25 17:36 | 48.03481 | 16.32104 | 4065 ft | 297 kts | 127° |
| 2026-04-25 17:36 | 48.02262 | 16.34536 | 3995 ft | 288 kts | 127° |
| 2026-04-25 17:37 | 48.01070 | 16.36898 | 3991 ft | 281 kts | 128° |
| 2026-04-25 17:37 | 47.99809 | 16.39111 | 3991 ft | 280 kts | 131° |
| 2026-04-25 17:37 | 47.98558 | 16.41339 | 4027 ft | 281 kts | 129° |
| 2026-04-25 17:37 | 47.97291 | 16.43553 | 3932 ft | 275 kts | 131° |
| 2026-04-25 17:38 | 47.96057 | 16.45665 | 3604 ft | 269 kts | 131° |
| 2026-04-25 17:38 | 47.95642 | 16.46380 | 3482 ft | 269 kts | 131° |
| 2026-04-25 17:38 | 47.93623 | 16.49848 | 3042 ft | 261 kts | 131° |
| 2026-04-25 17:38 | 47.92463 | 16.51850 | 3002 ft | 251 kts | 131° |
| 2026-04-25 17:39 | 47.91485 | 16.53991 | 3005 ft | 251 kts | 109° |
| 2026-04-25 17:39 | 47.91282 | 16.56515 | 2985 ft | 246 kts | 78° |
| 2026-04-25 17:39 | 47.91617 | 16.59021 | 2985 ft | 247 kts | 75° |
| 2026-04-25 17:39 | 47.91976 | 16.61505 | 2978 ft | 239 kts | 71° |
| 2026-04-25 17:40 | 47.92420 | 16.62940 | 2975 ft | 222 kts | 47° |
| 2026-04-25 17:40 | 47.93555 | 16.64257 | 2986 ft | 198 kts | 16° |
| 2026-04-25 17:40 | 47.94794 | 16.64614 | 2994 ft | 174 kts | 356° |
| 2026-04-25 17:40 | 47.95985 | 16.64449 | 2974 ft | 168 kts | 345° |
| 2026-04-25 17:41 | 47.97087 | 16.64071 | 2958 ft | 158 kts | 341° |
| 2026-04-25 17:41 | 47.98139 | 16.63653 | 2756 ft | 155 kts | 339° |
| 2026-04-25 17:41 | 47.99177 | 16.63216 | 2545 ft | 156 kts | 338° |
| 2026-04-25 17:41 | 48.00219 | 16.62782 | 2344 ft | 152 kts | 339° |
| 2026-04-25 17:42 | 48.01202 | 16.62368 | 2135 ft | 144 kts | 337° |
| 2026-04-25 17:42 | 48.02138 | 16.61976 | 1957 ft | 134 kts | 337° |
| 2026-04-25 17:42 | 48.03016 | 16.61603 | 1779 ft | 130 kts | 336° |
| 2026-04-25 17:42 | 48.03889 | 16.61232 | 1612 ft | 130 kts | 336° |
| 2026-04-25 17:43 | 48.04780 | 16.60860 | 1473 ft | 135 kts | 337° |
| 2026-04-25 17:43 | 48.05666 | 16.60483 | 1358 ft | 133 kts | 337° |
| 2026-04-25 17:43 | 48.06558 | 16.60086 | 1240 ft | 134 kts | 339° |
| 2026-04-25 17:43 | 48.07472 | 16.59722 | 1060 ft | 139 kts | 340° |
| 2026-04-25 17:44 | 48.08409 | 16.59350 | 842 ft | 138 kts | 339° |
| 2026-04-25 17:44 | 48.09301 | 16.58947 | 637 ft | 125 kts | 340° |
| 2026-04-25 17:44 | 48.09840 | 16.58722 | 634 ft | 45 kts | 345° |
| 2026-04-25 17:44 | 48.10115 | 16.58613 | 631 ft | 38 kts | 345° |
| 2026-04-25 17:45 | 48.10326 | 16.58502 | 629 ft | 23 kts | 332° |
| 2026-04-25 17:45 | 48.10399 | 16.58418 | 628 ft | 20 kts | 309° |
| 2026-04-25 17:45 | 48.10446 | 16.58298 | 620 ft | 0 kts | 297° |
| 2026-04-25 17:45 | 48.10448 | 16.58293 | 618 ft | 0 kts | 297° |
| 2026-04-25 17:46 | 48.10450 | 16.58286 | 627 ft | 1 kts | 297° |
| 2026-04-25 17:46 | 48.10456 | 16.58269 | 627 ft | 2 kts | 298° |
| 2026-04-25 17:46 | 48.10465 | 16.58245 | 628 ft | 3 kts | 298° |
| 2026-04-25 17:46 | 48.10478 | 16.58213 | 622 ft | 6 kts | 303° |
| 2026-04-25 17:47 | 48.10506 | 16.58165 | 631 ft | 5 kts | 328° |
| 2026-04-25 17:47 | 48.10562 | 16.58138 | 622 ft | 12 kts | 346° |
| 2026-04-25 17:47 | 48.10658 | 16.58103 | 623 ft | 16 kts | 345° |
| 2026-04-25 17:47 | 48.10774 | 16.58050 | 628 ft | 18 kts | 340° |
| 2026-04-25 17:48 | 48.10885 | 16.57989 | 629 ft | 5 kts | 340° |
| 2026-04-25 17:48 | 48.10894 | 16.57984 | 629 ft | 0 kts | 341° |
| 2026-04-25 17:48 | 48.10919 | 16.57972 | 628 ft | 7 kts | 341° |
| 2026-04-25 17:49 | 48.10964 | 16.57948 | 627 ft | 1 kts | 336° |
| 2026-04-25 17:49 | 48.10987 | 16.57923 | 628 ft | 7 kts | 311° |
| 2026-04-25 17:49 | 48.11033 | 16.57845 | 628 ft | 13 kts | 314° |
| 2026-04-25 17:49 | 48.11121 | 16.57746 | 628 ft | 15 kts | 324° |
| 2026-04-25 17:50 | 48.11185 | 16.57638 | 633 ft | 14 kts | 298° |
| 2026-04-25 17:50 | 48.11227 | 16.57508 | 622 ft | 14 kts | 294° |
| 2026-04-25 17:50 | 48.11265 | 16.57385 | 632 ft | 10 kts | 304° |
| 2026-04-25 17:50 | 48.11321 | 16.57345 | 632 ft | 10 kts | 10° |
| 2026-04-25 17:51 | 48.11400 | 16.57392 | 630 ft | 13 kts | 9° |
| 2026-04-25 17:51 | 48.11439 | 16.57349 | 624 ft | 8 kts | 295° |
| 2026-04-25 17:51 | 48.11462 | 16.57268 | 625 ft | 9 kts | 293° |
| 2026-04-25 17:51 | 48.11491 | 16.57174 | 623 ft | 11 kts | 296° |
| 2026-04-25 17:52 | 48.11532 | 16.57056 | 629 ft | 14 kts | 299° |
| 2026-04-25 17:52 | 48.11554 | 16.56999 | 625 ft | 9 kts | 299° |
| 2026-04-25 17:52 | 48.11594 | 16.56892 | 626 ft | 8 kts | 304° |
| 2026-04-25 17:52 | 48.11628 | 16.56874 | 615 ft | 7 kts | 5° |
| 2026-04-25 17:53 | 48.11648 | 16.56884 | 614 ft | 5 kts | 25° |
| 2026-04-25 17:53 | 48.11665 | 16.56896 | 621 ft | 0 kts | 24° |